sensor_id;sensor_type;location;lat;lon;timestamp;pressure;altitude;pressure_sealevel;temperature;humidity
70968;BME280;58629;48.808;8.820;2022-10-16T00:01:11;96994.44;;;14.55;97.39
70968;BME280;58629;48.808;8.820;2022-10-16T00:03:41;97010.00;;;14.57;97.66
70968;BME280;58629;48.808;8.820;2022-10-16T00:06:07;97008.50;;;14.56;97.66
70968;BME280;58629;48.808;8.820;2022-10-16T00:08:34;97002.75;;;14.57;97.38
70968;BME280;58629;48.808;8.820;2022-10-16T00:11:08;96987.63;;;14.54;97.51
70968;BME280;58629;48.808;8.820;2022-10-16T00:13:35;96999.03;;;14.55;98.14
70968;BME280;58629;48.808;8.820;2022-10-16T00:16:02;97003.59;;;14.54;97.46
70968;BME280;58629;48.808;8.820;2022-10-16T00:18:28;97004.34;;;14.55;98.17
70968;BME280;58629;48.808;8.820;2022-10-16T00:20:54;96991.47;;;14.53;97.61
70968;BME280;58629;48.808;8.820;2022-10-16T00:23:20;97003.28;;;14.52;97.83
70968;BME280;58629;48.808;8.820;2022-10-16T00:25:55;96995.31;;;14.52;97.88
70968;BME280;58629;48.808;8.820;2022-10-16T00:28:20;96996.50;;;14.51;97.50
70968;BME280;58629;48.808;8.820;2022-10-16T00:30:46;97005.22;;;14.52;97.49
70968;BME280;58629;48.808;8.820;2022-10-16T00:33:11;97012.03;;;14.53;97.60
70968;BME280;58629;48.808;8.820;2022-10-16T00:35:36;97009.81;;;14.51;97.35
70968;BME280;58629;48.808;8.820;2022-10-16T00:38:02;96997.53;;;14.54;97.57
70968;BME280;58629;48.808;8.820;2022-10-16T00:40:27;97003.59;;;14.54;96.88
70968;BME280;58629;48.808;8.820;2022-10-16T00:42:53;96999.47;;;14.53;97.26
70968;BME280;58629;48.808;8.820;2022-10-16T00:45:18;97000.94;;;14.54;97.11
70968;BME280;58629;48.808;8.820;2022-10-16T00:47:45;97003.28;;;14.52;97.57
70968;BME280;58629;48.808;8.820;2022-10-16T00:50:31;97008.19;;;14.54;97.18
70968;BME280;58629;48.808;8.820;2022-10-16T00:52:58;97005.84;;;14.56;97.05
70968;BME280;58629;48.808;8.820;2022-10-16T00:55:26;97002.31;;;14.59;97.03
70968;BME280;58629;48.808;8.820;2022-10-16T00:57:53;97009.31;;;14.65;96.39
70968;BME280;58629;48.808;8.820;2022-10-16T01:00:21;97007.69;;;14.68;96.50
70968;BME280;58629;48.808;8.820;2022-10-16T01:02:59;97006.81;;;14.71;96.42
70968;BME280;58629;48.808;8.820;2022-10-16T01:05:37;97014.81;;;14.71;96.16
70968;BME280;58629;48.808;8.820;2022-10-16T01:08:12;97012.91;;;14.71;96.04
70968;BME280;58629;48.808;8.820;2022-10-16T01:11:00;97004.78;;;14.75;95.43
70968;BME280;58629;48.808;8.820;2022-10-16T01:13:35;97013.53;;;14.75;95.86
70968;BME280;58629;48.808;8.820;2022-10-16T01:16:07;97025.22;;;14.78;95.33
70968;BME280;58629;48.808;8.820;2022-10-16T01:18:43;97027.75;;;14.82;95.08
70968;BME280;58629;48.808;8.820;2022-10-16T01:21:16;97027.75;;;14.82;94.71
70968;BME280;58629;48.808;8.820;2022-10-16T01:29:25;97025.38;;;14.84;95.14
70968;BME280;58629;48.808;8.820;2022-10-16T01:31:56;97017.41;;;14.84;95.04
70968;BME280;58629;48.808;8.820;2022-10-16T01:34:49;97014.00;;;14.83;95.24
70968;BME280;58629;48.808;8.820;2022-10-16T01:37:21;97014.00;;;14.83;95.52
70968;BME280;58629;48.808;8.820;2022-10-16T01:39:48;97005.41;;;14.79;95.95
70968;BME280;58629;48.808;8.820;2022-10-16T01:42:22;97003.47;;;14.80;96.19
70968;BME280;58629;48.808;8.820;2022-10-16T01:44:51;96998.25;;;14.76;96.35
70968;BME280;58629;48.808;8.820;2022-10-16T01:47:20;97010.88;;;14.75;96.58
70968;BME280;58629;48.808;8.820;2022-10-16T01:49:47;97004.91;;;14.71;97.33
70968;BME280;58629;48.808;8.820;2022-10-16T01:52:16;97004.59;;;14.69;98.09
70968;BME280;58629;48.808;8.820;2022-10-16T01:54:46;97005.16;;;14.64;98.85
70968;BME280;58629;48.808;8.820;2022-10-16T01:57:13;97006.44;;;14.60;99.66
70968;BME280;58629;48.808;8.820;2022-10-16T01:59:46;97011.91;;;14.56;99.78
70968;BME280;58629;48.808;8.820;2022-10-16T02:02:13;97013.94;;;14.52;99.64
70968;BME280;58629;48.808;8.820;2022-10-16T02:04:46;97014.09;;;14.49;100.00
70968;BME280;58629;48.808;8.820;2022-10-16T02:07:13;97013.03;;;14.46;100.00
70968;BME280;58629;48.808;8.820;2022-10-16T02:09:39;97013.91;;;14.43;99.90
70968;BME280;58629;48.808;8.820;2022-10-16T02:12:10;97005.16;;;14.43;100.00
70968;BME280;58629;48.808;8.820;2022-10-16T02:14:38;97012.41;;;14.42;100.00
70968;BME280;58629;48.808;8.820;2022-10-16T02:17:14;97012.09;;;14.40;100.00
70968;BME280;58629;48.808;8.820;2022-10-16T02:19:41;97006.44;;;14.38;100.00
70968;BME280;58629;48.808;8.820;2022-10-16T02:22:08;97005.84;;;14.34;100.00
70968;BME280;58629;48.808;8.820;2022-10-16T02:24:43;97015.22;;;14.26;100.00
70968;BME280;58629;48.808;8.820;2022-10-16T02:29:55;97002.03;;;14.23;100.00
70968;BME280;58629;48.808;8.820;2022-10-16T02:32:28;97020.03;;;14.19;100.00
70968;BME280;58629;48.808;8.820;2022-10-16T02:34:56;97021.66;;;14.16;100.00
70968;BME280;58629;48.808;8.820;2022-10-16T02:37:22;97033.03;;;14.17;100.00
70968;BME280;58629;48.808;8.820;2022-10-16T02:39:48;97028.91;;;14.16;100.00
70968;BME280;58629;48.808;8.820;2022-10-16T02:42:14;97034.34;;;14.12;100.00
70968;BME280;58629;48.808;8.820;2022-10-16T02:44:39;97032.97;;;14.08;100.00
70968;BME280;58629;48.808;8.820;2022-10-16T02:47:05;97031.16;;;14.05;100.00
70968;BME280;58629;48.808;8.820;2022-10-16T02:49:30;97029.38;;;14.02;100.00
70968;BME280;58629;48.808;8.820;2022-10-16T02:51:55;97027.56;;;13.99;100.00
70968;BME280;58629;48.808;8.820;2022-10-16T02:54:21;97027.56;;;13.99;100.00
70968;BME280;58629;48.808;8.820;2022-10-16T02:56:46;97029.91;;;13.97;100.00
70968;BME280;58629;48.808;8.820;2022-10-16T02:59:11;97026.19;;;13.94;100.00
70968;BME280;58629;48.808;8.820;2022-10-16T03:01:36;97028.22;;;13.90;100.00
70968;BME280;58629;48.808;8.820;2022-10-16T03:04:02;97038.56;;;13.88;100.00
70968;BME280;58629;48.808;8.820;2022-10-16T03:06:27;97037.94;;;13.84;100.00
70968;BME280;58629;48.808;8.820;2022-10-16T03:08:53;97037.31;;;13.80;100.00
70968;BME280;58629;48.808;8.820;2022-10-16T03:11:18;97043.47;;;13.77;100.00
70968;BME280;58629;48.808;8.820;2022-10-16T03:13:43;97043.91;;;13.75;100.00
70968;BME280;58629;48.808;8.820;2022-10-16T03:16:08;97040.72;;;13.68;100.00
70968;BME280;58629;48.808;8.820;2022-10-16T03:18:34;97038.81;;;13.68;100.00
70968;BME280;58629;48.808;8.820;2022-10-16T03:20:59;97037.44;;;13.64;100.00
70968;BME280;58629;48.808;8.820;2022-10-16T03:23:24;97032.44;;;13.66;100.00
70968;BME280;58629;48.808;8.820;2022-10-16T03:25:49;97035.19;;;13.62;100.00
70968;BME280;58629;48.808;8.820;2022-10-16T03:28:15;97032.63;;;13.59;100.00
70968;BME280;58629;48.808;8.820;2022-10-16T03:30:40;97034.97;;;13.57;100.00
70968;BME280;58629;48.808;8.820;2022-10-16T03:33:05;97047.75;;;13.49;100.00
70968;BME280;58629;48.808;8.820;2022-10-16T03:35:31;97044.69;;;13.51;100.00
70968;BME280;58629;48.808;8.820;2022-10-16T03:37:57;97040.53;;;13.50;100.00
70968;BME280;58629;48.808;8.820;2022-10-16T03:40:23;97043.94;;;13.50;100.00
70968;BME280;58629;48.808;8.820;2022-10-16T03:42:48;97038.31;;;13.48;100.00
70968;BME280;58629;48.808;8.820;2022-10-16T03:45:13;97040.22;;;13.48;100.00
70968;BME280;58629;48.808;8.820;2022-10-16T03:47:39;97048.19;;;13.48;100.00
70968;BME280;58629;48.808;8.820;2022-10-16T03:50:04;97042.88;;;13.48;100.00
70968;BME280;58629;48.808;8.820;2022-10-16T03:52:30;97052.03;;;13.47;100.00
70968;BME280;58629;48.808;8.820;2022-10-16T03:54:57;97048.63;;;13.46;100.00
70968;BME280;58629;48.808;8.820;2022-10-16T03:57:22;97050.53;;;13.46;100.00
70968;BME280;58629;48.808;8.820;2022-10-16T03:59:47;97043.72;;;13.45;100.00
70968;BME280;58629;48.808;8.820;2022-10-16T04:02:13;97043.72;;;13.45;100.00
70968;BME280;58629;48.808;8.820;2022-10-16T04:04:38;97037.97;;;13.46;100.00
70968;BME280;58629;48.808;8.820;2022-10-16T04:07:03;97036.06;;;13.47;100.00
70968;BME280;58629;48.808;8.820;2022-10-16T04:09:29;97038.72;;;13.47;100.00
70968;BME280;58629;48.808;8.820;2022-10-16T04:11:54;97034.88;;;13.48;100.00
70968;BME280;58629;48.808;8.820;2022-10-16T04:14:19;97031.47;;;13.47;100.00
70968;BME280;58629;48.808;8.820;2022-10-16T04:16:44;97029.56;;;13.48;100.00
70968;BME280;58629;48.808;8.820;2022-10-16T04:19:10;97036.78;;;13.47;100.00
70968;BME280;58629;48.808;8.820;2022-10-16T04:21:36;97039.06;;;13.49;100.00
70968;BME280;58629;48.808;8.820;2022-10-16T04:24:01;97039.78;;;13.49;100.00
70968;BME280;58629;48.808;8.820;2022-10-16T04:26:26;97045.09;;;13.49;100.00
70968;BME280;58629;48.808;8.820;2022-10-16T04:28:51;97049.69;;;13.49;100.00
70968;BME280;58629;48.808;8.820;2022-10-16T04:31:17;97052.03;;;13.47;100.00
70968;BME280;58629;48.808;8.820;2022-10-16T04:33:43;97053.50;;;13.48;100.00
70968;BME280;58629;48.808;8.820;2022-10-16T04:36:08;97052.03;;;13.47;100.00
70968;BME280;58629;48.808;8.820;2022-10-16T04:38:34;97057.13;;;13.41;100.00
70968;BME280;58629;48.808;8.820;2022-10-16T04:40:59;97058.75;;;13.39;100.00
70968;BME280;58629;48.808;8.820;2022-10-16T04:43:25;97057.22;;;13.38;100.00
70968;BME280;58629;48.808;8.820;2022-10-16T04:45:51;97062.66;;;13.34;100.00
70968;BME280;58629;48.808;8.820;2022-10-16T04:48:16;97068.31;;;13.36;100.00
70968;BME280;58629;48.808;8.820;2022-10-16T04:50:42;97073.72;;;13.33;100.00
70968;BME280;58629;48.808;8.820;2022-10-16T04:53:07;97072.34;;;13.28;100.00
70968;BME280;58629;48.808;8.820;2022-10-16T04:55:33;97079.56;;;13.28;100.00
70968;BME280;58629;48.808;8.820;2022-10-16T04:57:58;97080.75;;;13.27;100.00
70968;BME280;58629;48.808;8.820;2022-10-16T05:00:23;97079.56;;;13.28;100.00
70968;BME280;58629;48.808;8.820;2022-10-16T05:02:51;97080.00;;;13.26;100.00
70968;BME280;58629;48.808;8.820;2022-10-16T05:05:17;97064.47;;;13.25;100.00
70968;BME280;58629;48.808;8.820;2022-10-16T05:07:45;97067.03;;;13.28;100.00
70968;BME280;58629;48.808;8.820;2022-10-16T05:10:10;97067.78;;;13.29;100.00
70968;BME280;58629;48.808;8.820;2022-10-16T05:12:35;97063.19;;;13.29;100.00
70968;BME280;58629;48.808;8.820;2022-10-16T05:15:01;97074.69;;;13.26;100.00
70968;BME280;58629;48.808;8.820;2022-10-16T05:17:26;97070.09;;;13.27;100.00
70968;BME280;58629;48.808;8.820;2022-10-16T05:19:51;97076.59;;;13.26;100.00
70968;BME280;58629;48.808;8.820;2022-10-16T05:22:17;97082.22;;;13.28;100.00
70968;BME280;58629;48.808;8.820;2022-10-16T05:24:43;97079.56;;;13.28;100.00
70968;BME280;58629;48.808;8.820;2022-10-16T05:27:08;97084.78;;;13.19;100.00
70968;BME280;58629;48.808;8.820;2022-10-16T05:29:33;97083.50;;;13.11;100.00
70968;BME280;58629;48.808;8.820;2022-10-16T05:31:59;97077.41;;;13.10;100.00
70968;BME280;58629;48.808;8.820;2022-10-16T05:34:24;97077.84;;;13.09;100.00
70968;BME280;58629;48.808;8.820;2022-10-16T05:36:49;97083.59;;;13.07;100.00
70968;BME280;58629;48.808;8.820;2022-10-16T05:39:15;97073.69;;;13.07;100.00
70968;BME280;58629;48.808;8.820;2022-10-16T05:41:41;97085.19;;;13.04;100.00
70968;BME280;58629;48.808;8.820;2022-10-16T05:44:07;97100.03;;;13.02;100.00
70968;BME280;58629;48.808;8.820;2022-10-16T05:46:32;97098.13;;;13.02;100.00
70968;BME280;58629;48.808;8.820;2022-10-16T05:48:58;97099.63;;;13.03;100.00
70968;BME280;58629;48.808;8.820;2022-10-16T05:51:23;97104.88;;;13.07;100.00
70968;BME280;58629;48.808;8.820;2022-10-16T05:53:49;97097.22;;;13.09;100.00
70968;BME280;58629;48.808;8.820;2022-10-16T05:56:14;97097.53;;;13.11;100.00
70968;BME280;58629;48.808;8.820;2022-10-16T05:58:40;97097.84;;;13.13;100.00
70968;BME280;58629;48.808;8.820;2022-10-16T06:01:09;97100.28;;;13.07;100.00
70968;BME280;58629;48.808;8.820;2022-10-16T06:03:34;97109.84;;;13.05;100.00
70968;BME280;58629;48.808;8.820;2022-10-16T06:06:16;97113.66;;;13.04;100.00
70968;BME280;58629;48.808;8.820;2022-10-16T06:08:43;97113.66;;;13.04;100.00
70968;BME280;58629;48.808;8.820;2022-10-16T06:11:11;97106.09;;;13.02;100.00
70968;BME280;58629;48.808;8.820;2022-10-16T06:13:37;97108.00;;;13.02;100.00
70968;BME280;58629;48.808;8.820;2022-10-16T06:16:04;97109.09;;;13.04;100.00
70968;BME280;58629;48.808;8.820;2022-10-16T06:18:30;97109.31;;;13.10;100.00
70968;BME280;58629;48.808;8.820;2022-10-16T06:20:56;97109.22;;;13.14;100.00
70968;BME280;58629;48.808;8.820;2022-10-16T06:23:22;97114.84;;;13.16;100.00
70968;BME280;58629;48.808;8.820;2022-10-16T06:25:47;97109.75;;;13.21;100.00
70968;BME280;58629;48.808;8.820;2022-10-16T06:28:15;97108.28;;;13.20;100.00
70968;BME280;58629;48.808;8.820;2022-10-16T06:30:41;97124.88;;;13.24;100.00
70968;BME280;58629;48.808;8.820;2022-10-16T06:33:08;97129.00;;;13.25;100.00
70968;BME280;58629;48.808;8.820;2022-10-16T06:35:34;97132.75;;;13.28;100.00
70968;BME280;58629;48.808;8.820;2022-10-16T06:37:59;97125.19;;;13.26;100.00
70968;BME280;58629;48.808;8.820;2022-10-16T06:40:24;97128.41;;;13.34;100.00
70968;BME280;58629;48.808;8.820;2022-10-16T06:42:50;97131.81;;;13.34;100.00
70968;BME280;58629;48.808;8.820;2022-10-16T06:45:16;97133.94;;;13.39;100.00
70968;BME280;58629;48.808;8.820;2022-10-16T06:47:42;97133.00;;;13.46;100.00
70968;BME280;58629;48.808;8.820;2022-10-16T06:50:07;97136.28;;;13.50;100.00
70968;BME280;58629;48.808;8.820;2022-10-16T06:52:33;97146.81;;;13.53;100.00
70968;BME280;58629;48.808;8.820;2022-10-16T06:54:58;97154.69;;;13.57;100.00
70968;BME280;58629;48.808;8.820;2022-10-16T06:57:24;97151.53;;;13.62;100.00
70968;BME280;58629;48.808;8.820;2022-10-16T06:59:49;97155.59;;;13.66;100.00
70968;BME280;58629;48.808;8.820;2022-10-16T07:02:14;97162.69;;;13.69;100.00
70968;BME280;58629;48.808;8.820;2022-10-16T07:04:40;97177.84;;;13.72;100.00
70968;BME280;58629;48.808;8.820;2022-10-16T07:07:05;97176.31;;;13.71;100.00
70968;BME280;58629;48.808;8.820;2022-10-16T07:09:30;97181.66;;;13.71;100.00
70968;BME280;58629;48.808;8.820;2022-10-16T07:11:56;97185.06;;;13.72;100.00
70968;BME280;58629;48.808;8.820;2022-10-16T07:14:21;97189.97;;;13.73;100.00
70968;BME280;58629;48.808;8.820;2022-10-16T07:16:47;97188.47;;;13.72;100.00
70968;BME280;58629;48.808;8.820;2022-10-16T07:19:13;97192.63;;;13.73;100.00
70968;BME280;58629;48.808;8.820;2022-10-16T07:21:40;97188.38;;;13.76;100.00
70968;BME280;58629;48.808;8.820;2022-10-16T07:24:10;97193.59;;;13.79;100.00
70968;BME280;58629;48.808;8.820;2022-10-16T07:26:36;97191.56;;;13.83;100.00
70968;BME280;58629;48.808;8.820;2022-10-16T07:29:04;97189.13;;;13.89;100.00
70968;BME280;58629;48.808;8.820;2022-10-16T07:31:29;97190.38;;;13.97;100.00
70968;BME280;58629;48.808;8.820;2022-10-16T07:33:55;97188.56;;;14.07;100.00
70968;BME280;58629;48.808;8.820;2022-10-16T07:36:20;97195.19;;;14.15;100.00
70968;BME280;58629;48.808;8.820;2022-10-16T07:38:46;97200.31;;;14.22;100.00
70968;BME280;58629;48.808;8.820;2022-10-16T07:41:14;97202.22;;;14.34;100.00
70968;BME280;58629;48.808;8.820;2022-10-16T07:43:40;97207.53;;;14.46;100.00
70968;BME280;58629;48.808;8.820;2022-10-16T07:46:10;97212.72;;;14.62;100.00
70968;BME280;58629;48.808;8.820;2022-10-16T07:48:35;97211.41;;;14.80;100.00
70968;BME280;58629;48.808;8.820;2022-10-16T07:51:02;97209.88;;;14.91;98.98
70968;BME280;58629;48.808;8.820;2022-10-16T07:53:28;97215.03;;;15.07;97.95
70968;BME280;58629;48.808;8.820;2022-10-16T07:56:01;97210.84;;;15.19;94.50
70968;BME280;58629;48.808;8.820;2022-10-16T07:58:27;97218.34;;;15.33;94.68
70968;BME280;58629;48.808;8.820;2022-10-16T08:00:53;97213.09;;;15.42;94.69
70968;BME280;58629;48.808;8.820;2022-10-16T08:03:18;97213.88;;;15.51;94.55
70968;BME280;58629;48.808;8.820;2022-10-16T08:05:43;97213.34;;;15.56;94.02
70968;BME280;58629;48.808;8.820;2022-10-16T08:08:13;97205.81;;;15.64;93.60
70968;BME280;58629;48.808;8.820;2022-10-16T08:10:38;97217.41;;;15.70;93.65
70968;BME280;58629;48.808;8.820;2022-10-16T08:13:03;97227.94;;;15.74;93.62
70968;BME280;58629;48.808;8.820;2022-10-16T08:15:29;97233.16;;;15.77;94.26
70968;BME280;58629;48.808;8.820;2022-10-16T08:17:58;97237.19;;;15.82;93.98
70968;BME280;58629;48.808;8.820;2022-10-16T08:20:24;97234.06;;;15.83;94.05
70968;BME280;58629;48.808;8.820;2022-10-16T08:22:49;97241.09;;;15.90;94.75
70968;BME280;58629;48.808;8.820;2022-10-16T08:25:15;97232.94;;;15.93;94.32
70968;BME280;58629;48.808;8.820;2022-10-16T08:27:40;97242.94;;;16.02;94.18
70968;BME280;58629;48.808;8.820;2022-10-16T08:30:06;97237.31;;;16.09;92.92
70968;BME280;58629;48.808;8.820;2022-10-16T08:32:31;97238.22;;;16.15;92.13
70968;BME280;58629;48.808;8.820;2022-10-16T08:34:57;97244.47;;;16.21;91.22
70968;BME280;58629;48.808;8.820;2022-10-16T08:37:22;97242.28;;;16.28;91.75
70968;BME280;58629;48.808;8.820;2022-10-16T08:39:47;97243.34;;;16.31;92.17
70968;BME280;58629;48.808;8.820;2022-10-16T08:42:29;97239.03;;;16.33;92.87
70968;BME280;58629;48.808;8.820;2022-10-16T08:45:15;97239.34;;;16.35;93.21
70968;BME280;58629;48.808;8.820;2022-10-16T08:50:25;97242.63;;;16.39;93.16
70968;BME280;58629;48.808;8.820;2022-10-16T08:52:52;97242.94;;;16.41;92.94
70968;BME280;58629;48.808;8.820;2022-10-16T08:58:12;97251.00;;;16.51;89.80
70968;BME280;58629;48.808;8.820;2022-10-16T09:00:38;97242.25;;;16.59;89.78
70968;BME280;58629;48.808;8.820;2022-10-16T09:08:23;97262.50;;;16.78;86.59
70968;BME280;58629;48.808;8.820;2022-10-16T09:10:58;97263.41;;;16.84;86.06
70968;BME280;58629;48.808;8.820;2022-10-16T09:13:36;97267.41;;;16.89;83.82
70968;BME280;58629;48.808;8.820;2022-10-16T09:18:59;97258.38;;;16.95;82.47
70968;BME280;58629;48.808;8.820;2022-10-16T09:21:32;97264.91;;;16.94;82.42
70968;BME280;58629;48.808;8.820;2022-10-16T09:24:14;97259.56;;;17.03;83.38
70968;BME280;58629;48.808;8.820;2022-10-16T09:26:42;97253.19;;;17.19;82.26
70968;BME280;58629;48.808;8.820;2022-10-16T09:29:12;97257.47;;;17.44;81.04
70968;BME280;58629;48.808;8.820;2022-10-16T09:31:37;97259.84;;;17.60;80.41
70968;BME280;58629;48.808;8.820;2022-10-16T09:34:04;97265.66;;;17.67;80.47
70968;BME280;58629;48.808;8.820;2022-10-16T09:36:38;97271.09;;;17.91;77.17
70968;BME280;58629;48.808;8.820;2022-10-16T09:39:07;97265.56;;;18.03;78.65
70968;BME280;58629;48.808;8.820;2022-10-16T09:41:38;97271.31;;;18.20;78.16
70968;BME280;58629;48.808;8.820;2022-10-16T09:44:14;97278.91;;;18.63;76.36
70968;BME280;58629;48.808;8.820;2022-10-16T09:46:41;97287.53;;;18.67;76.41
70968;BME280;58629;48.808;8.820;2022-10-16T09:49:24;97287.25;;;18.89;76.75
70968;BME280;58629;48.808;8.820;2022-10-16T09:51:50;97290.78;;;18.71;75.77
70968;BME280;58629;48.808;8.820;2022-10-16T09:54:18;97287.53;;;18.67;74.04
70968;BME280;58629;48.808;8.820;2022-10-16T09:56:43;97281.53;;;18.72;75.16
70968;BME280;58629;48.808;8.820;2022-10-16T09:59:16;97288.78;;;18.81;75.79
70968;BME280;58629;48.808;8.820;2022-10-16T10:01:52;97293.69;;;18.82;75.79
70968;BME280;58629;48.808;8.820;2022-10-16T10:04:19;97284.22;;;18.96;76.10
70968;BME280;58629;48.808;8.820;2022-10-16T10:06:49;97296.53;;;19.02;75.92
70968;BME280;58629;48.808;8.820;2022-10-16T10:09:20;97293.41;;;19.04;75.76
70968;BME280;58629;48.808;8.820;2022-10-16T10:11:59;97299.72;;;19.16;75.60
70968;BME280;58629;48.808;8.820;2022-10-16T10:19:29;97299.50;;;19.28;75.47
70968;BME280;58629;48.808;8.820;2022-10-16T10:21:54;97309.19;;;19.35;74.97
70968;BME280;58629;48.808;8.820;2022-10-16T10:24:20;97305.09;;;19.39;74.59
70968;BME280;58629;48.808;8.820;2022-10-16T10:26:51;97304.09;;;19.51;75.06
70968;BME280;58629;48.808;8.820;2022-10-16T10:30:05;97301.81;;;19.59;74.81
70968;BME280;58629;48.808;8.820;2022-10-16T10:32:37;97300.16;;;19.76;74.20
70968;BME280;58629;48.808;8.820;2022-10-16T10:35:22;97306.91;;;20.01;73.61
70968;BME280;58629;48.808;8.820;2022-10-16T10:38:16;97301.38;;;20.04;73.67
70968;BME280;58629;48.808;8.820;2022-10-16T10:40:51;97299.31;;;20.14;74.19
70968;BME280;58629;48.808;8.820;2022-10-16T10:43:40;97296.38;;;20.26;73.82
70968;BME280;58629;48.808;8.820;2022-10-16T10:49:37;97300.34;;;20.45;73.31
70968;BME280;58629;48.808;8.820;2022-10-16T10:52:37;97293.63;;;20.55;70.86
70968;BME280;58629;48.808;8.820;2022-10-16T11:05:50;97306.09;;;20.73;70.41
70968;BME280;58629;48.808;8.820;2022-10-16T11:08:27;97303.09;;;20.86;70.87
70968;BME280;58629;48.808;8.820;2022-10-16T11:11:15;97302.97;;;20.95;70.02
70968;BME280;58629;48.808;8.820;2022-10-16T11:17:13;97296.81;;;21.09;68.59
70968;BME280;58629;48.808;8.820;2022-10-16T11:19:46;97296.41;;;21.16;68.03
70968;BME280;58629;48.808;8.820;2022-10-16T11:22:18;97303.00;;;21.15;67.78
70968;BME280;58629;48.808;8.820;2022-10-16T11:27:45;97294.50;;;21.22;66.78
70968;BME280;58629;48.808;8.820;2022-10-16T11:30:18;97293.75;;;21.41;66.54
70968;BME280;58629;48.808;8.820;2022-10-16T11:35:48;97294.38;;;21.31;65.77
70968;BME280;58629;48.808;8.820;2022-10-16T11:41:21;97294.84;;;21.29;68.32
70968;BME280;58629;48.808;8.820;2022-10-16T11:47:09;97284.16;;;21.15;67.08
70968;BME280;58629;48.808;8.820;2022-10-16T11:49:37;97282.81;;;21.05;67.81
70968;BME280;58629;48.808;8.820;2022-10-16T11:52:22;97286.31;;;21.11;67.25
70968;BME280;58629;48.808;8.820;2022-10-16T11:55:14;97283.94;;;21.18;66.05
70968;BME280;58629;48.808;8.820;2022-10-16T11:57:48;97282.75;;;21.19;66.32
70968;BME280;58629;48.808;8.820;2022-10-16T12:00:25;97284.28;;;21.06;66.35
70968;BME280;58629;48.808;8.820;2022-10-16T12:05:49;97282.81;;;21.05;67.84
70968;BME280;58629;48.808;8.820;2022-10-16T12:08:17;97280.66;;;21.09;69.45
70968;BME280;58629;48.808;8.820;2022-10-16T12:10:45;97273.09;;;21.33;65.95
70968;BME280;58629;48.808;8.820;2022-10-16T12:13:32;97271.78;;;21.48;67.50
70968;BME280;58629;48.808;8.820;2022-10-16T12:18:45;97290.16;;;21.96;65.70
70968;BME280;58629;48.808;8.820;2022-10-16T12:21:12;97290.56;;;22.14;64.94
70968;BME280;58629;48.808;8.820;2022-10-16T12:23:54;97294.03;;;22.20;66.01
70968;BME280;58629;48.808;8.820;2022-10-16T12:26:29;97290.47;;;22.03;68.05
70968;BME280;58629;48.808;8.820;2022-10-16T12:29:09;97289.94;;;21.99;67.62
70968;BME280;58629;48.808;8.820;2022-10-16T12:31:45;97288.41;;;21.93;65.67
70968;BME280;58629;48.808;8.820;2022-10-16T12:34:22;97289.03;;;21.56;65.74
70968;BME280;58629;48.808;8.820;2022-10-16T12:36:48;97293.44;;;21.34;66.00
70968;BME280;58629;48.808;8.820;2022-10-16T12:39:22;97290.47;;;21.12;67.10
70968;BME280;58629;48.808;8.820;2022-10-16T12:42:00;97296.41;;;21.16;69.30
70968;BME280;58629;48.808;8.820;2022-10-16T12:44:31;97300.94;;;21.50;68.38
70968;BME280;58629;48.808;8.820;2022-10-16T12:46:57;97300.66;;;21.68;68.79
70968;BME280;58629;48.808;8.820;2022-10-16T12:51:54;97288.63;;;21.89;67.67
70968;BME280;58629;48.808;8.820;2022-10-16T12:54:27;97296.75;;;21.95;68.28
70968;BME280;58629;48.808;8.820;2022-10-16T12:57:25;97300.06;;;22.10;67.41
70968;BME280;58629;48.808;8.820;2022-10-16T12:59:58;97295.47;;;22.16;66.10
70968;BME280;58629;48.808;8.820;2022-10-16T13:09:04;97303.44;;;21.79;65.48
70968;BME280;58629;48.808;8.820;2022-10-16T13:14:42;97303.69;;;21.55;67.03
70968;BME280;58629;48.808;8.820;2022-10-16T13:19:45;97311.47;;;21.28;68.15
70968;BME280;58629;48.808;8.820;2022-10-16T13:22:41;97308.88;;;21.13;67.66
70968;BME280;58629;48.808;8.820;2022-10-16T13:28:01;97316.47;;;21.35;68.68
70968;BME280;58629;48.808;8.820;2022-10-16T13:30:31;97312.56;;;21.36;66.23
70968;BME280;58629;48.808;8.820;2022-10-16T13:33:14;97308.38;;;21.55;67.85
70968;BME280;58629;48.808;8.820;2022-10-16T13:35:54;97322.44;;;21.44;67.33
70968;BME280;58629;48.808;8.820;2022-10-16T13:38:25;97313.56;;;21.38;68.67
70968;BME280;58629;48.808;8.820;2022-10-16T13:40:57;97314.75;;;21.37;69.21
70968;BME280;58629;48.808;8.820;2022-10-16T13:43:29;97312.69;;;21.27;67.53
70968;BME280;58629;48.808;8.820;2022-10-16T13:45:59;97307.59;;;21.09;68.88
70968;BME280;58629;48.808;8.820;2022-10-16T13:48:25;97317.19;;;20.95;69.91
70968;BME280;58629;48.808;8.820;2022-10-16T13:51:22;97310.84;;;20.98;70.87
70968;BME280;58629;48.808;8.820;2022-10-16T13:53:46;97305.16;;;21.31;70.17
70968;BME280;58629;48.808;8.820;2022-10-16T13:56:20;97305.34;;;21.27;69.87
70968;BME280;58629;48.808;8.820;2022-10-16T13:58:58;97300.84;;;21.19;70.02
70968;BME280;58629;48.808;8.820;2022-10-16T14:01:27;97312.56;;;21.16;70.39
70968;BME280;58629;48.808;8.820;2022-10-16T14:04:01;97308.34;;;21.09;71.25
70968;BME280;58629;48.808;8.820;2022-10-16T14:06:27;97311.19;;;21.06;71.20
70968;BME280;58629;48.808;8.820;2022-10-16T14:09:14;97312.16;;;21.03;71.69
70968;BME280;58629;48.808;8.820;2022-10-16T14:12:10;97315.75;;;21.00;72.19
70968;BME280;58629;48.808;8.820;2022-10-16T14:14:45;97327.19;;;20.95;71.93
70968;BME280;58629;48.808;8.820;2022-10-16T14:17:26;97328.59;;;20.90;71.66
70968;BME280;58629;48.808;8.820;2022-10-16T14:19:54;97319.00;;;20.84;72.27
70968;BME280;58629;48.808;8.820;2022-10-16T14:22:37;97325.19;;;20.90;72.31
70968;BME280;58629;48.808;8.820;2022-10-16T14:25:24;97324.50;;;20.95;72.39
70968;BME280;58629;48.808;8.820;2022-10-16T14:28:04;97325.97;;;20.96;72.34